»·PEaware :: N2822D KGEG-CYQR

N2822D :: KGEG-CYQR

FLIGHT INFORMATION

Flight Status: Arrived
Operator: Privately registered:
United States
More flights under this callsign
Pilot: Wayne R. (17783)
Aircraft: CESSNA 310
(C310)
More flights by this aircraft type
Origin: KGEG Spokane Intl
United States
Destination: CYQR Regina
Canada
More flights between these airports :: More routes between these airports
Route: +
File this flight plan on PilotEdge
Remarks:
Altitude:
(Current/Filed)
9,000ft
Speed:
(Current/Filed)
155kts
Departed: 07-Dec-19 10:37 PM
Arrived: 08-Dec-19 09:54 AM
Distance/Time
Traveled:
533nm/11:17
Distance/Time
To Go:
Arrived

Flight Plot

Page will automatically refresh every two minutes.


Map Options




Map Legend


Flown Route
Filed Route
Departure Airport
Arrival Airport
Navaid (VOR, NDB)
Fix

Horizontal Profiles

Position Reports

Time Latitude Longitude Heading Altitude Ground
Speed
07-Dec-19 22:19 47.620545 -117.528233 25 2361ft 0kts
07-Dec-19 22:20 47.620545 -117.528233 25 2361ft 0kts
07-Dec-19 22:21 47.620545 -117.528233 25 2361ft 0kts
07-Dec-19 22:22 47.620545 -117.528233 25 2361ft 0kts
07-Dec-19 22:23 47.620545 -117.528233 25 2361ft 0kts
07-Dec-19 22:24 47.620545 -117.528233 25 2361ft 0kts
07-Dec-19 22:25 47.620545 -117.528233 25 2361ft 0kts
07-Dec-19 22:26 47.620545 -117.528233 25 2361ft 0kts
07-Dec-19 22:27 47.620545 -117.528233 25 2361ft 0kts
07-Dec-19 22:28 47.620545 -117.528233 26 2361ft 0kts
07-Dec-19 22:29 47.620571 -117.528216 18 2361ft 5kts
07-Dec-19 22:30 47.621229 -117.528917 333 2360ft 0kts
07-Dec-19 22:31 47.626168 -117.522436 42 2341ft 38kts
07-Dec-19 22:32 47.629155 -117.516817 43 2326ft 0kts
07-Dec-19 22:33 47.629155 -117.516817 43 2326ft 0kts
07-Dec-19 22:34 47.629155 -117.516817 43 2326ft 0kts
07-Dec-19 22:35 47.630373 -117.517343 324 2321ft 0kts
07-Dec-19 22:36 47.624198 -117.528943 225 2376ft 104kts
07-Dec-19 22:37 47.597242 -117.544805 130 3223ft 136kts
07-Dec-19 22:38 47.582376 -117.494801 109 4092ft 135kts
07-Dec-19 22:39 47.571519 -117.439136 102 4569ft 134kts
07-Dec-19 22:40 47.559913 -117.383759 119 4671ft 135kts
07-Dec-19 22:41 47.546457 -117.331265 103 4789ft 137kts
07-Dec-19 22:42 47.551243 -117.278361 72 5357ft 134kts
07-Dec-19 22:43 47.551328 -117.222990 87 5878ft 135kts
07-Dec-19 22:44 47.554821 -117.167433 99 6313ft 136kts
07-Dec-19 22:45 47.561273 -117.112621 70 6653ft 141kts
07-Dec-19 22:46 47.573621 -117.058070 72 7258ft 137kts
07-Dec-19 22:47 47.602303 -117.026050 19 7802ft 140kts
07-Dec-19 22:48 47.607363 -116.972877 90 8122ft 151kts
07-Dec-19 22:49 47.608631 -116.913382 86 8689ft 144kts
07-Dec-19 22:50 47.621630 -116.856777 73 9153ft 150kts
07-Dec-19 22:51 47.636635 -116.799144 63 9510ft 158kts
07-Dec-19 22:52 47.657449 -116.740416 64 9937ft 166kts
07-Dec-19 22:53 47.678647 -116.679553 64 10416ft 168kts
07-Dec-19 22:54 47.700243 -116.616905 64 10868ft 168kts
07-Dec-19 22:55 47.726380 -116.558920 52 11281ft 169kts
07-Dec-19 22:56 47.754312 -116.501956 53 11502ft 174kts
07-Dec-19 22:57 47.781930 -116.445464 52 11542ft 177kts
07-Dec-19 22:58 47.810952 -116.386149 52 11543ft 185kts
07-Dec-19 22:59 47.841380 -116.324042 53 11570ft 186kts
07-Dec-19 23:00 47.870405 -116.259211 58 11583ft 186kts
07-Dec-19 23:01 47.898103 -116.191798 61 11582ft 185kts
07-Dec-19 23:02 47.915929 -116.123531 78 11572ft 185kts
07-Dec-19 23:03 47.926761 -116.051655 78 11520ft 183kts
07-Dec-19 23:04 47.937603 -115.980002 78 11518ft 186kts
07-Dec-19 23:05 47.948708 -115.906884 78 11557ft 187kts
07-Dec-19 23:06 47.959936 -115.833254 78 11584ft 186kts
07-Dec-19 23:07 47.971310 -115.758647 77 11664ft 190kts
07-Dec-19 23:08 47.982915 -115.681950 77 11786ft 191kts
07-Dec-19 23:09 47.996623 -115.605989 74 11907ft 192kts
07-Dec-19 23:10 48.012998 -115.530698 70 12036ft 193kts
07-Dec-19 23:11 48.030119 -115.455410 70 12192ft 191kts
07-Dec-19 23:12 48.047227 -115.380070 70 12344ft 190kts
07-Dec-19 23:13 48.063282 -115.307132 75 12450ft 190kts
07-Dec-19 23:14 48.077548 -115.231311 73 12532ft 190kts
07-Dec-19 23:15 48.093026 -115.155965 73 12614ft 189kts
07-Dec-19 23:16 48.108071 -115.081783 73 12714ft 188kts
07-Dec-19 23:17 48.122696 -115.008580 72 12813ft 187kts
07-Dec-19 23:18 48.137083 -114.935808 72 12908ft 186kts
07-Dec-19 23:19 48.151495 -114.862763 72 12995ft 186kts
07-Dec-19 23:20 48.166870 -114.790147 67 13078ft 186kts
07-Dec-19 23:21 48.184834 -114.719578 67 13164ft 186kts
07-Dec-19 23:22 48.203219 -114.647251 67 13246ft 186kts
07-Dec-19 23:23 48.221311 -114.576167 67 13305ft 185kts
07-Dec-19 23:24 48.239955 -114.502811 67 13348ft 184kts
07-Dec-19 23:25 48.258358 -114.430440 67 13395ft 185kts
07-Dec-19 23:26 48.276978 -114.357304 67 13474ft 186kts
07-Dec-19 23:27 48.295534 -114.284690 67 13504ft 185kts
07-Dec-19 23:28 48.314180 -114.212096 67 13519ft 185kts
07-Dec-19 23:29 48.332690 -114.140046 67 13529ft 184kts
07-Dec-19 23:30 48.351139 -114.068246 67 13566ft 186kts
07-Dec-19 23:31 48.370127 -113.994299 67 13628ft 187kts
07-Dec-19 23:32 48.389031 -113.920575 67 13680ft 188kts
07-Dec-19 23:33 48.408101 -113.846265 67 13685ft 191kts
07-Dec-19 23:34 48.427621 -113.770394 67 13669ft 193kts
07-Dec-19 23:35 48.447202 -113.694356 67 13660ft 192kts
07-Dec-19 23:36 48.466660 -113.618648 67 13626ft 191kts
07-Dec-19 23:37 48.485822 -113.544146 67 13617ft 190kts
07-Dec-19 23:38 48.505542 -113.468960 64 13692ft 190kts
07-Dec-19 23:39 48.526610 -113.394149 64 13795ft 190kts
07-Dec-19 23:40 48.547541 -113.319899 65 13898ft 190kts
07-Dec-19 23:41 48.568620 -113.245478 65 13883ft 192kts
07-Dec-19 23:42 48.590084 -113.169754 65 13904ft 194kts
07-Dec-19 23:43 48.611308 -113.094953 65 14026ft 191kts
07-Dec-19 23:44 48.632407 -113.020485 65 14126ft 191kts
07-Dec-19 23:45 48.653361 -112.945265 65 14209ft 192kts
07-Dec-19 23:46 48.673960 -112.869300 65 14287ft 194kts
07-Dec-19 23:47 48.694114 -112.792645 65 14365ft 196kts
07-Dec-19 23:49 48.714211 -112.715336 64 14450ft 196kts
07-Dec-19 23:50 48.734446 -112.637546 64 14535ft 196kts
07-Dec-19 23:51 48.754753 -112.560261 63 14613ft 196kts
07-Dec-19 23:52 48.775691 -112.483059 63 14687ft 196kts
07-Dec-19 23:53 48.796620 -112.405954 63 14759ft 196kts
07-Dec-19 23:54 48.817546 -112.328981 64 14814ft 195kts
07-Dec-19 23:55 48.838597 -112.252016 64 14844ft 196kts
07-Dec-19 23:56 48.859716 -112.174800 63 14884ft 196kts
07-Dec-19 23:57 48.880910 -112.097444 63 14910ft 197kts
07-Dec-19 23:58 48.902086 -112.020134 63 14958ft 196kts
07-Dec-19 23:59 48.923397 -111.942474 63 14967ft 198kts
08-Dec-19 00:00 48.926102 -111.932623 63 14969ft 198kts
08-Dec-19 00:01 48.926102 -111.932623 63 14969ft 198kts
08-Dec-19 00:02 48.926102 -111.932623 63 14969ft 198kts
08-Dec-19 00:03 48.926102 -111.932623 63 14969ft 198kts
08-Dec-19 00:04 48.926102 -111.932623 63 14969ft 198kts
08-Dec-19 00:05 48.926102 -111.932623 63 14969ft 198kts
08-Dec-19 00:06 48.926102 -111.932623 63 14969ft 198kts
08-Dec-19 00:07 48.926102 -111.932623 63 14969ft 198kts
08-Dec-19 00:07 48.926102 -111.932623 63 14969ft 198kts
08-Dec-19 00:09 48.926102 -111.932623 63 14969ft 198kts
08-Dec-19 00:09 48.926102 -111.932623 63 14969ft 198kts
08-Dec-19 00:10 48.926102 -111.932623 63 14969ft 198kts
08-Dec-19 00:12 48.926102 -111.932623 63 14969ft 198kts
08-Dec-19 00:12 48.926102 -111.932623 63 14969ft 198kts
08-Dec-19 00:14 48.926102 -111.932623 63 14969ft 198kts
08-Dec-19 00:14 48.926102 -111.932623 63 14969ft 198kts
08-Dec-19 00:15 48.926102 -111.932623 63 14969ft 198kts
08-Dec-19 00:16 48.926102 -111.932623 63 14969ft 198kts
08-Dec-19 00:17 48.926102 -111.932623 63 14969ft 198kts
08-Dec-19 00:18 48.926102 -111.932623 63 14969ft 198kts
08-Dec-19 00:19 48.926102 -111.932623 63 14969ft 198kts
08-Dec-19 00:20 48.926102 -111.932623 63 14969ft 198kts
08-Dec-19 00:21 48.926102 -111.932623 63 14969ft 198kts
08-Dec-19 00:22 48.926102 -111.932623 63 14969ft 198kts
08-Dec-19 00:23 48.926102 -111.932623 63 14969ft 198kts
08-Dec-19 00:24 48.926102 -111.932623 63 14969ft 198kts
08-Dec-19 00:25 48.926102 -111.932623 63 14969ft 198kts
08-Dec-19 00:26 48.926102 -111.932623 63 14969ft 198kts
08-Dec-19 00:27 48.926102 -111.932623 63 14969ft 198kts
08-Dec-19 00:28 48.926102 -111.932623 63 14969ft 198kts
08-Dec-19 00:29 48.926102 -111.932623 63 14969ft 198kts
08-Dec-19 00:30 48.926102 -111.932623 63 14969ft 198kts
08-Dec-19 00:31 48.926102 -111.932623 63 14969ft 198kts
08-Dec-19 00:32 48.926102 -111.932623 63 14969ft 198kts
08-Dec-19 00:33 48.926102 -111.932623 63 14969ft 198kts
08-Dec-19 00:34 48.926102 -111.932623 63 14969ft 198kts
08-Dec-19 00:35 48.926102 -111.932623 63 14969ft 198kts
08-Dec-19 00:36 48.926102 -111.932623 63 14969ft 198kts
08-Dec-19 00:37 48.926102 -111.932623 63 14969ft 198kts
08-Dec-19 00:38 48.926102 -111.932623 63 14969ft 198kts
08-Dec-19 00:39 48.926102 -111.932623 63 14969ft 198kts
08-Dec-19 00:40 48.926102 -111.932623 63 14969ft 198kts
08-Dec-19 00:41 48.926102 -111.932623 63 14969ft 198kts
08-Dec-19 00:42 48.926102 -111.932623 63 14969ft 198kts
08-Dec-19 00:43 48.926102 -111.932623 63 14969ft 198kts
08-Dec-19 00:44 48.926102 -111.932623 63 14969ft 198kts
08-Dec-19 00:45 48.926102 -111.932623 63 14969ft 198kts
08-Dec-19 00:46 48.926102 -111.932623 63 14969ft 198kts
08-Dec-19 00:47 48.926102 -111.932623 63 14969ft 198kts
08-Dec-19 00:48 48.926102 -111.932623 63 14969ft 198kts
08-Dec-19 00:49 48.926102 -111.932623 63 14969ft 198kts
08-Dec-19 00:50 48.926102 -111.932623 63 14969ft 198kts
08-Dec-19 00:51 48.926102 -111.932623 63 14969ft 198kts
08-Dec-19 00:52 48.926102 -111.932623 63 14969ft 198kts
08-Dec-19 00:53 48.926102 -111.932623 63 14969ft 198kts
08-Dec-19 00:54 48.926102 -111.932623 63 14969ft 198kts
08-Dec-19 00:55 48.926102 -111.932623 63 14969ft 198kts
08-Dec-19 00:56 48.926102 -111.932623 63 14969ft 198kts
08-Dec-19 00:57 48.926102 -111.932623 63 14969ft 198kts
08-Dec-19 00:58 48.926102 -111.932623 63 14969ft 198kts
08-Dec-19 00:59 48.926102 -111.932623 63 14969ft 198kts
08-Dec-19 01:00 48.926102 -111.932623 63 14969ft 198kts
08-Dec-19 01:01 48.926102 -111.932623 63 14969ft 198kts
08-Dec-19 01:02 48.926102 -111.932623 63 14969ft 198kts
08-Dec-19 01:03 48.926102 -111.932623 63 14969ft 198kts
08-Dec-19 01:04 48.926102 -111.932623 63 14969ft 198kts
08-Dec-19 01:05 48.926102 -111.932623 63 14969ft 198kts
08-Dec-19 01:06 48.926102 -111.932623 63 14969ft 198kts
08-Dec-19 01:07 48.926102 -111.932623 63 14969ft 198kts
08-Dec-19 01:08 48.926102 -111.932623 63 14969ft 198kts
08-Dec-19 01:09 48.926102 -111.932623 63 14969ft 198kts
08-Dec-19 01:10 48.926102 -111.932623 63 14969ft 198kts
08-Dec-19 01:11 48.926102 -111.932623 63 14969ft 198kts
08-Dec-19 01:12 48.926102 -111.932623 63 14969ft 198kts
08-Dec-19 01:13 48.926102 -111.932623 63 14969ft 198kts
08-Dec-19 01:14 48.926102 -111.932623 63 14969ft 198kts
08-Dec-19 01:15 48.926102 -111.932623 63 14969ft 198kts
08-Dec-19 01:16 48.926102 -111.932623 63 14969ft 198kts
08-Dec-19 01:17 48.926102 -111.932623 63 14969ft 198kts
08-Dec-19 01:18 48.926102 -111.932623 63 14969ft 198kts
08-Dec-19 01:19 48.926102 -111.932623 63 14969ft 198kts
08-Dec-19 01:20 48.926102 -111.932623 63 14969ft 198kts
08-Dec-19 01:21 48.926102 -111.932623 63 14969ft 198kts
08-Dec-19 01:22 48.926102 -111.932623 63 14969ft 198kts
08-Dec-19 01:23 48.926102 -111.932623 63 14969ft 198kts
08-Dec-19 01:24 48.926102 -111.932623 63 14969ft 198kts
08-Dec-19 01:25 48.926102 -111.932623 63 14969ft 198kts
08-Dec-19 01:26 48.926102 -111.932623 63 14969ft 198kts
08-Dec-19 01:27 48.926102 -111.932623 63 14969ft 198kts
08-Dec-19 01:28 48.926102 -111.932623 63 14969ft 198kts
08-Dec-19 01:29 48.926102 -111.932623 63 14969ft 198kts
08-Dec-19 01:30 48.926102 -111.932623 63 14969ft 198kts
08-Dec-19 01:31 48.926102 -111.932623 63 14969ft 198kts
08-Dec-19 01:32 48.926102 -111.932623 63 14969ft 198kts
08-Dec-19 01:33 48.926102 -111.932623 63 14969ft 198kts
08-Dec-19 01:34 48.926102 -111.932623 63 14969ft 198kts
08-Dec-19 01:35 48.926102 -111.932623 63 14969ft 198kts
08-Dec-19 01:36 48.926102 -111.932623 63 14969ft 198kts
08-Dec-19 01:37 48.926102 -111.932623 63 14969ft 198kts
08-Dec-19 01:38 48.926102 -111.932623 63 14969ft 198kts
08-Dec-19 01:39 48.926102 -111.932623 63 14969ft 198kts
08-Dec-19 01:40 48.926102 -111.932623 63 14969ft 198kts
08-Dec-19 01:41 48.926102 -111.932623 63 14969ft 198kts
08-Dec-19 01:42 48.926102 -111.932623 63 14969ft 198kts
08-Dec-19 01:43 48.926102 -111.932623 63 14969ft 198kts
08-Dec-19 01:44 48.926102 -111.932623 63 14969ft 198kts
08-Dec-19 01:45 48.926102 -111.932623 63 14969ft 198kts
08-Dec-19 01:46 48.926102 -111.932623 63 14969ft 198kts
08-Dec-19 01:47 48.926102 -111.932623 63 14969ft 198kts
08-Dec-19 01:48 48.926102 -111.932623 63 14969ft 198kts
08-Dec-19 01:49 48.926102 -111.932623 63 14969ft 198kts
08-Dec-19 01:50 48.926102 -111.932623 63 14969ft 198kts
08-Dec-19 01:51 48.926102 -111.932623 63 14969ft 198kts
08-Dec-19 01:52 48.926102 -111.932623 63 14969ft 198kts
08-Dec-19 01:53 48.926102 -111.932623 63 14969ft 198kts
08-Dec-19 01:54 48.926102 -111.932623 63 14969ft 198kts
08-Dec-19 01:55 48.926102 -111.932623 63 14969ft 198kts
08-Dec-19 01:56 48.926102 -111.932623 63 14969ft 198kts
08-Dec-19 01:57 48.926102 -111.932623 63 14969ft 198kts
08-Dec-19 01:58 48.926102 -111.932623 63 14969ft 198kts
08-Dec-19 01:59 48.926102 -111.932623 63 14969ft 198kts
08-Dec-19 02:00 48.926102 -111.932623 63 14969ft 198kts
08-Dec-19 02:01 48.926102 -111.932623 63 14969ft 198kts
08-Dec-19 02:02 48.926102 -111.932623 63 14969ft 198kts
08-Dec-19 02:03 48.926102 -111.932623 63 14969ft 198kts
08-Dec-19 02:04 48.926102 -111.932623 63 14969ft 198kts
08-Dec-19 02:05 48.926102 -111.932623 63 14969ft 198kts
08-Dec-19 02:06 48.926102 -111.932623 63 14969ft 198kts
08-Dec-19 02:07 48.926102 -111.932623 63 14969ft 198kts
08-Dec-19 02:08 48.926102 -111.932623 63 14969ft 198kts
08-Dec-19 02:10 48.926102 -111.932623 63 14969ft 198kts
08-Dec-19 02:11 48.926102 -111.932623 63 14969ft 198kts
08-Dec-19 02:12 48.926102 -111.932623 63 14969ft 198kts
08-Dec-19 02:13 48.926102 -111.932623 63 14969ft 198kts
08-Dec-19 02:14 48.926102 -111.932623 63 14969ft 198kts
08-Dec-19 02:15 48.926102 -111.932623 63 14969ft 198kts
08-Dec-19 02:16 48.926102 -111.932623 63 14969ft 198kts
08-Dec-19 02:17 48.926102 -111.932623 63 14969ft 198kts
08-Dec-19 02:18 48.926102 -111.932623 63 14969ft 198kts
08-Dec-19 02:19 48.926102 -111.932623 63 14969ft 198kts
08-Dec-19 02:20 48.926102 -111.932623 63 14969ft 198kts
08-Dec-19 02:21 48.926102 -111.932623 63 14969ft 198kts
08-Dec-19 02:22 48.926102 -111.932623 63 14969ft 198kts
08-Dec-19 02:23 48.926102 -111.932623 63 14969ft 198kts
08-Dec-19 02:24 48.926102 -111.932623 63 14969ft 198kts
08-Dec-19 02:25 48.926102 -111.932623 63 14969ft 198kts
08-Dec-19 02:26 48.926102 -111.932623 63 14969ft 198kts
08-Dec-19 02:27 48.926102 -111.932623 63 14969ft 198kts
08-Dec-19 02:28 48.926102 -111.932623 63 14969ft 198kts
08-Dec-19 02:29 48.926102 -111.932623 63 14969ft 198kts
08-Dec-19 02:30 48.926102 -111.932623 63 14969ft 198kts
08-Dec-19 02:30 48.926102 -111.932623 63 14969ft 198kts
08-Dec-19 02:32 48.926102 -111.932623 63 14969ft 198kts
08-Dec-19 02:32 48.926102 -111.932623 63 14969ft 198kts
08-Dec-19 02:34 48.926102 -111.932623 63 14969ft 198kts
08-Dec-19 02:34 48.926102 -111.932623 63 14969ft 198kts
08-Dec-19 02:35 48.926102 -111.932623 63 14969ft 198kts
08-Dec-19 02:37 48.926102 -111.932623 63 14969ft 198kts
08-Dec-19 02:37 48.926102 -111.932623 63 14969ft 198kts
08-Dec-19 02:38 48.926102 -111.932623 63 14969ft 198kts
08-Dec-19 02:39 48.926102 -111.932623 63 14969ft 198kts
08-Dec-19 02:40 48.926102 -111.932623 63 14969ft 198kts
08-Dec-19 02:41 48.926102 -111.932623 63 14969ft 198kts
08-Dec-19 02:42 48.926102 -111.932623 63 14969ft 198kts
08-Dec-19 02:43 48.926102 -111.932623 63 14969ft 198kts
08-Dec-19 02:44 48.926102 -111.932623 63 14969ft 198kts
08-Dec-19 02:45 48.926102 -111.932623 63 14969ft 198kts
08-Dec-19 02:46 48.926102 -111.932623 63 14969ft 198kts
08-Dec-19 02:47 48.926102 -111.932623 63 14969ft 198kts
08-Dec-19 02:48 48.926102 -111.932623 63 14969ft 198kts
08-Dec-19 02:49 48.926102 -111.932623 63 14969ft 198kts
08-Dec-19 02:50 48.926102 -111.932623 63 14969ft 198kts
08-Dec-19 02:51 48.926102 -111.932623 63 14969ft 198kts
08-Dec-19 02:52 48.926102 -111.932623 63 14969ft 198kts
08-Dec-19 02:53 48.926102 -111.932623 63 14969ft 198kts
08-Dec-19 02:54 48.926102 -111.932623 63 14969ft 198kts
08-Dec-19 02:55 48.926102 -111.932623 63 14969ft 198kts
08-Dec-19 02:56 48.926102 -111.932623 63 14969ft 198kts
08-Dec-19 02:57 48.926102 -111.932623 63 14969ft 198kts
08-Dec-19 02:58 48.926102 -111.932623 63 14969ft 198kts
08-Dec-19 02:59 48.926102 -111.932623 63 14969ft 198kts
08-Dec-19 03:00 48.926102 -111.932623 63 14969ft 198kts
08-Dec-19 03:01 48.926102 -111.932623 63 14969ft 198kts
08-Dec-19 03:02 48.926102 -111.932623 63 14969ft 198kts
08-Dec-19 03:03 48.926102 -111.932623 63 14969ft 198kts
08-Dec-19 03:04 48.926102 -111.932623 63 14969ft 198kts
08-Dec-19 03:05 48.926102 -111.932623 63 14969ft 198kts
08-Dec-19 03:06 48.926102 -111.932623 63 14969ft 198kts
08-Dec-19 03:07 48.926102 -111.932623 63 14969ft 198kts
08-Dec-19 03:08 48.926102 -111.932623 63 14969ft 198kts
08-Dec-19 03:09 48.926102 -111.932623 63 14969ft 198kts
08-Dec-19 03:10 48.926102 -111.932623 63 14969ft 198kts
08-Dec-19 03:11 48.926102 -111.932623 63 14969ft 198kts
08-Dec-19 03:12 48.926102 -111.932623 63 14969ft 198kts
08-Dec-19 03:13 48.926102 -111.932623 63 14969ft 198kts
08-Dec-19 03:14 48.926102 -111.932623 63 14969ft 198kts
08-Dec-19 03:15 48.926102 -111.932623 63 14969ft 198kts
08-Dec-19 03:16 48.926102 -111.932623 63 14969ft 198kts
08-Dec-19 03:17 48.926102 -111.932623 63 14969ft 198kts
08-Dec-19 03:18 48.926102 -111.932623 63 14969ft 198kts
08-Dec-19 03:19 48.926102 -111.932623 63 14969ft 198kts
08-Dec-19 03:20 48.926102 -111.932623 63 14969ft 198kts
08-Dec-19 03:21 48.926102 -111.932623 63 14969ft 198kts
08-Dec-19 03:22 48.926102 -111.932623 63 14969ft 198kts
08-Dec-19 03:23 48.926102 -111.932623 63 14969ft 198kts
08-Dec-19 03:24 48.926102 -111.932623 63 14969ft 198kts
08-Dec-19 03:25 48.926102 -111.932623 63 14969ft 198kts
08-Dec-19 03:26 48.926102 -111.932623 63 14969ft 198kts
08-Dec-19 03:27 48.926102 -111.932623 63 14969ft 198kts
08-Dec-19 03:28 48.926102 -111.932623 63 14969ft 198kts
08-Dec-19 03:29 48.926102 -111.932623 63 14969ft 198kts
08-Dec-19 03:30 48.926102 -111.932623 63 14969ft 198kts
08-Dec-19 03:31 48.926102 -111.932623 63 14969ft 198kts
08-Dec-19 03:32 48.926102 -111.932623 63 14969ft 198kts
08-Dec-19 03:33 48.926102 -111.932623 63 14969ft 198kts
08-Dec-19 03:34 48.926102 -111.932623 63 14969ft 198kts
08-Dec-19 03:35 48.926102 -111.932623 63 14969ft 198kts
08-Dec-19 03:36 48.926102 -111.932623 63 14969ft 198kts
08-Dec-19 03:37 48.926102 -111.932623 63 14969ft 198kts
08-Dec-19 03:38 48.926102 -111.932623 63 14969ft 198kts
08-Dec-19 03:39 48.926102 -111.932623 63 14969ft 198kts
08-Dec-19 03:40 48.926102 -111.932623 63 14969ft 198kts
08-Dec-19 03:41 48.926102 -111.932623 63 14969ft 198kts
08-Dec-19 03:42 48.926102 -111.932623 63 14969ft 198kts
08-Dec-19 03:43 48.926102 -111.932623 63 14969ft 198kts
08-Dec-19 03:44 48.926102 -111.932623 63 14969ft 198kts
08-Dec-19 03:45 48.926102 -111.932623 63 14969ft 198kts
08-Dec-19 03:46 48.926102 -111.932623 63 14969ft 198kts
08-Dec-19 03:47 48.926102 -111.932623 63 14969ft 198kts
08-Dec-19 03:48 48.926102 -111.932623 63 14969ft 198kts
08-Dec-19 03:49 48.926102 -111.932623 63 14969ft 198kts
08-Dec-19 03:50 48.926102 -111.932623 63 14969ft 198kts
08-Dec-19 03:51 48.926102 -111.932623 63 14969ft 198kts
08-Dec-19 03:52 48.926102 -111.932623 63 14969ft 198kts
08-Dec-19 03:53 48.926102 -111.932623 63 14969ft 198kts
08-Dec-19 03:54 48.926102 -111.932623 63 14969ft 198kts
08-Dec-19 03:55 48.926102 -111.932623 63 14969ft 198kts
08-Dec-19 03:56 48.926102 -111.932623 63 14969ft 198kts
08-Dec-19 03:57 48.926102 -111.932623 63 14969ft 198kts
08-Dec-19 03:58 48.926102 -111.932623 63 14969ft 198kts
08-Dec-19 03:59 48.926102 -111.932623 63 14969ft 198kts
08-Dec-19 04:00 48.926102 -111.932623 63 14969ft 198kts
08-Dec-19 04:01 48.926102 -111.932623 63 14969ft 198kts
08-Dec-19 04:02 48.926102 -111.932623 63 14969ft 198kts
08-Dec-19 04:03 48.926102 -111.932623 63 14969ft 198kts
08-Dec-19 04:04 48.926102 -111.932623 63 14969ft 198kts
08-Dec-19 04:05 48.926102 -111.932623 63 14969ft 198kts
08-Dec-19 04:06 48.926102 -111.932623 63 14969ft 198kts
08-Dec-19 04:07 48.926102 -111.932623 63 14969ft 198kts
08-Dec-19 04:08 48.926102 -111.932623 63 14969ft 198kts
08-Dec-19 04:09 48.926102 -111.932623 63 14969ft 198kts
08-Dec-19 04:10 48.926102 -111.932623 63 14969ft 198kts
08-Dec-19 04:11 48.926102 -111.932623 63 14969ft 198kts
08-Dec-19 04:12 48.926102 -111.932623 63 14969ft 198kts
08-Dec-19 04:13 48.926102 -111.932623 63 14969ft 198kts
08-Dec-19 04:14 48.926102 -111.932623 63 14969ft 198kts
08-Dec-19 04:15 48.926102 -111.932623 63 14969ft 198kts
08-Dec-19 04:16 48.926102 -111.932623 63 14969ft 198kts
08-Dec-19 04:17 48.926102 -111.932623 63 14969ft 198kts
08-Dec-19 04:18 48.926102 -111.932623 63 14969ft 198kts
08-Dec-19 04:19 48.926102 -111.932623 63 14969ft 198kts
08-Dec-19 04:20 48.926102 -111.932623 63 14969ft 198kts
08-Dec-19 04:21 48.926102 -111.932623 63 14969ft 198kts
08-Dec-19 04:22 48.926102 -111.932623 63 14969ft 198kts
08-Dec-19 04:23 48.926102 -111.932623 63 14969ft 198kts
08-Dec-19 04:24 48.926102 -111.932623 63 14969ft 198kts
08-Dec-19 04:25 48.926102 -111.932623 63 14969ft 198kts
08-Dec-19 04:26 48.926102 -111.932623 63 14969ft 198kts
08-Dec-19 04:27 48.926102 -111.932623 63 14969ft 198kts
08-Dec-19 04:28 48.926102 -111.932623 63 14969ft 198kts
08-Dec-19 04:30 48.926102 -111.932623 63 14969ft 198kts
08-Dec-19 04:31 48.926102 -111.932623 63 14969ft 198kts
08-Dec-19 04:32 48.926102 -111.932623 63 14969ft 198kts
08-Dec-19 04:33 48.926102 -111.932623 63 14969ft 198kts
08-Dec-19 04:34 48.926102 -111.932623 63 14969ft 198kts
08-Dec-19 04:35 48.926102 -111.932623 63 14969ft 198kts
08-Dec-19 04:36 48.926102 -111.932623 63 14969ft 198kts
08-Dec-19 04:37 48.926102 -111.932623 63 14969ft 198kts
08-Dec-19 04:38 48.926102 -111.932623 63 14969ft 198kts
08-Dec-19 04:39 48.926102 -111.932623 63 14969ft 198kts
08-Dec-19 04:40 48.926102 -111.932623 63 14969ft 198kts
08-Dec-19 04:41 48.926102 -111.932623 63 14969ft 198kts
08-Dec-19 04:42 48.926102 -111.932623 63 14969ft 198kts
08-Dec-19 04:43 48.926102 -111.932623 63 14969ft 198kts
08-Dec-19 04:44 48.926102 -111.932623 63 14969ft 198kts
08-Dec-19 04:45 48.926102 -111.932623 63 14969ft 198kts
08-Dec-19 04:46 48.926102 -111.932623 63 14969ft 198kts
08-Dec-19 04:46 48.926102 -111.932623 63 14969ft 198kts
08-Dec-19 04:48 48.926102 -111.932623 63 14969ft 198kts
08-Dec-19 04:49 48.926102 -111.932623 63 14969ft 198kts
08-Dec-19 04:50 48.926102 -111.932623 63 14969ft 198kts
08-Dec-19 04:51 48.926102 -111.932623 63 14969ft 198kts
08-Dec-19 04:51 48.926102 -111.932623 63 14969ft 198kts
08-Dec-19 04:53 48.926102 -111.932623 63 14969ft 198kts
08-Dec-19 04:53 48.926102 -111.932623 63 14969ft 198kts
08-Dec-19 04:54 48.926102 -111.932623 63 14969ft 198kts
08-Dec-19 04:55 48.926102 -111.932623 63 14969ft 198kts
08-Dec-19 04:56 48.926102 -111.932623 63 14969ft 198kts
08-Dec-19 04:58 48.926102 -111.932623 63 14969ft 198kts
08-Dec-19 04:58 48.926102 -111.932623 63 14969ft 198kts
08-Dec-19 04:59 48.926102 -111.932623 63 14969ft 198kts
08-Dec-19 05:00 48.926102 -111.932623 63 14969ft 198kts
08-Dec-19 05:01 48.926102 -111.932623 63 14969ft 198kts
08-Dec-19 05:02 48.926102 -111.932623 63 14969ft 198kts
08-Dec-19 05:03 48.926102 -111.932623 63 14969ft 198kts
08-Dec-19 05:04 48.926102 -111.932623 63 14969ft 198kts
08-Dec-19 05:05 48.926102 -111.932623 63 14969ft 198kts
08-Dec-19 05:06 48.926102 -111.932623 63 14969ft 198kts
08-Dec-19 05:07 48.926102 -111.932623 63 14969ft 198kts
08-Dec-19 05:08 48.926102 -111.932623 63 14969ft 198kts
08-Dec-19 05:09 48.926102 -111.932623 63 14969ft 198kts
08-Dec-19 05:10 48.926102 -111.932623 63 14969ft 198kts
08-Dec-19 05:11 48.926102 -111.932623 63 14969ft 198kts
08-Dec-19 05:12 48.926102 -111.932623 63 14969ft 198kts
08-Dec-19 05:13 48.926102 -111.932623 63 14969ft 198kts
08-Dec-19 05:14 48.926102 -111.932623 63 14969ft 198kts
08-Dec-19 05:15 48.926102 -111.932623 63 14969ft 198kts
08-Dec-19 05:16 48.926102 -111.932623 63 14969ft 198kts
08-Dec-19 05:17 48.926102 -111.932623 63 14969ft 198kts
08-Dec-19 05:18 48.926102 -111.932623 63 14969ft 198kts
08-Dec-19 05:19 48.926102 -111.932623 63 14969ft 198kts
08-Dec-19 05:20 48.926102 -111.932623 63 14969ft 198kts
08-Dec-19 05:21 48.926102 -111.932623 63 14969ft 198kts
08-Dec-19 05:22 48.926102 -111.932623 63 14969ft 198kts
08-Dec-19 05:23 48.926102 -111.932623 63 14969ft 198kts
08-Dec-19 05:24 48.926102 -111.932623 63 14969ft 198kts
08-Dec-19 05:25 48.926102 -111.932623 63 14969ft 198kts
08-Dec-19 05:26 48.926102 -111.932623 63 14969ft 198kts
08-Dec-19 05:27 48.926102 -111.932623 63 14969ft 198kts
08-Dec-19 05:28 48.926102 -111.932623 63 14969ft 198kts
08-Dec-19 05:29 48.926102 -111.932623 63 14969ft 198kts
08-Dec-19 05:30 48.926102 -111.932623 63 14969ft 198kts
08-Dec-19 05:31 48.926102 -111.932623 63 14969ft 198kts
08-Dec-19 05:32 48.926102 -111.932623 63 14969ft 198kts
08-Dec-19 05:33 48.926102 -111.932623 63 14969ft 198kts
08-Dec-19 05:34 48.926102 -111.932623 63 14969ft 198kts
08-Dec-19 05:35 48.926102 -111.932623 63 14969ft 198kts
08-Dec-19 05:36 48.926102 -111.932623 63 14969ft 198kts
08-Dec-19 05:37 48.926102 -111.932623 63 14969ft 198kts
08-Dec-19 05:38 48.926102 -111.932623 63 14969ft 198kts
08-Dec-19 05:39 48.926102 -111.932623 63 14969ft 198kts
08-Dec-19 05:40 48.926102 -111.932623 63 14969ft 198kts
08-Dec-19 05:41 48.926102 -111.932623 63 14969ft 198kts
08-Dec-19 05:42 48.926102 -111.932623 63 14969ft 198kts
08-Dec-19 05:43 48.926102 -111.932623 63 14969ft 198kts
08-Dec-19 05:44 48.926102 -111.932623 63 14969ft 198kts
08-Dec-19 05:45 48.926102 -111.932623 63 14969ft 198kts
08-Dec-19 05:46 48.926102 -111.932623 63 14969ft 198kts
08-Dec-19 05:47 48.926102 -111.932623 63 14969ft 198kts
08-Dec-19 05:48 48.926102 -111.932623 63 14969ft 198kts
08-Dec-19 05:49 48.926102 -111.932623 63 14969ft 198kts
08-Dec-19 05:50 48.926102 -111.932623 63 14969ft 198kts
08-Dec-19 05:51 48.926102 -111.932623 63 14969ft 198kts
08-Dec-19 05:52 48.926102 -111.932623 63 14969ft 198kts
08-Dec-19 05:53 48.926102 -111.932623 63 14969ft 198kts
08-Dec-19 05:54 48.926102 -111.932623 63 14969ft 198kts
08-Dec-19 05:55 48.926102 -111.932623 63 14969ft 198kts
08-Dec-19 05:56 48.926102 -111.932623 63 14969ft 198kts
08-Dec-19 05:57 48.926102 -111.932623 63 14969ft 198kts
08-Dec-19 05:58 48.926102 -111.932623 63 14969ft 198kts
08-Dec-19 05:59 48.926102 -111.932623 63 14969ft 198kts
08-Dec-19 06:00 48.926102 -111.932623 63 14969ft 198kts
08-Dec-19 06:01 48.926102 -111.932623 63 14969ft 198kts
08-Dec-19 06:02 48.926102 -111.932623 63 14969ft 198kts
08-Dec-19 06:03 48.926102 -111.932623 63 14969ft 198kts
08-Dec-19 06:04 48.926102 -111.932623 63 14969ft 198kts
08-Dec-19 06:05 48.926102 -111.932623 63 14969ft 198kts
08-Dec-19 06:06 48.926102 -111.932623 63 14969ft 198kts
08-Dec-19 06:07 48.926102 -111.932623 63 14969ft 198kts
08-Dec-19 06:08 48.926102 -111.932623 63 14969ft 198kts
08-Dec-19 06:09 48.926102 -111.932623 63 14969ft 198kts
08-Dec-19 06:10 48.926102 -111.932623 63 14969ft 198kts
08-Dec-19 06:11 48.926102 -111.932623 63 14969ft 198kts
08-Dec-19 06:12 48.926102 -111.932623 63 14969ft 198kts
08-Dec-19 06:13 48.926102 -111.932623 63 14969ft 198kts
08-Dec-19 06:14 48.926102 -111.932623 63 14969ft 198kts
08-Dec-19 06:15 48.926102 -111.932623 63 14969ft 198kts
08-Dec-19 06:16 48.926102 -111.932623 63 14969ft 198kts
08-Dec-19 06:17 48.926102 -111.932623 63 14969ft 198kts
08-Dec-19 06:18 48.926102 -111.932623 63 14969ft 198kts
08-Dec-19 06:19 48.926102 -111.932623 63 14969ft 198kts
08-Dec-19 06:20 48.926102 -111.932623 63 14969ft 198kts
08-Dec-19 06:21 48.926102 -111.932623 63 14969ft 198kts
08-Dec-19 06:22 48.926102 -111.932623 63 14969ft 198kts
08-Dec-19 06:23 48.926102 -111.932623 63 14969ft 198kts
08-Dec-19 06:24 48.926102 -111.932623 63 14969ft 198kts
08-Dec-19 06:25 48.926102 -111.932623 63 14969ft 198kts
08-Dec-19 06:26 48.926102 -111.932623 63 14969ft 198kts
08-Dec-19 06:27 48.926102 -111.932623 63 14969ft 198kts
08-Dec-19 06:28 48.926102 -111.932623 63 14969ft 198kts
08-Dec-19 06:29 48.926102 -111.932623 63 14969ft 198kts
08-Dec-19 06:30 48.926102 -111.932623 63 14969ft 198kts
08-Dec-19 06:31 48.926102 -111.932623 63 14969ft 198kts
08-Dec-19 06:32 48.926102 -111.932623 63 14969ft 198kts
08-Dec-19 06:33 48.926102 -111.932623 63 14969ft 198kts
08-Dec-19 06:34 48.926102 -111.932623 63 14969ft 198kts
08-Dec-19 06:35 48.926102 -111.932623 63 14969ft 198kts
08-Dec-19 06:36 48.926102 -111.932623 63 14969ft 198kts
08-Dec-19 06:37 48.926102 -111.932623 63 14969ft 198kts
08-Dec-19 06:38 48.926102 -111.932623 63 14969ft 198kts
08-Dec-19 06:39 48.926102 -111.932623 63 14969ft 198kts
08-Dec-19 06:40 48.926102 -111.932623 63 14969ft 198kts
08-Dec-19 06:41 48.926102 -111.932623 63 14969ft 198kts
08-Dec-19 06:42 48.926102 -111.932623 63 14969ft 198kts
08-Dec-19 06:43 48.926102 -111.932623 63 14969ft 198kts
08-Dec-19 06:44 48.926102 -111.932623 63 14969ft 198kts
08-Dec-19 06:45 48.926102 -111.932623 63 14969ft 198kts
08-Dec-19 06:46 48.926102 -111.932623 63 14969ft 198kts
08-Dec-19 06:47 48.926102 -111.932623 63 14969ft 198kts
08-Dec-19 06:48 48.926102 -111.932623 63 14969ft 198kts
08-Dec-19 06:49 48.926102 -111.932623 63 14969ft 198kts
08-Dec-19 06:50 48.926102 -111.932623 63 14969ft 198kts
08-Dec-19 06:51 48.926102 -111.932623 63 14969ft 198kts
08-Dec-19 06:53 48.926102 -111.932623 63 14969ft 198kts
08-Dec-19 06:54 48.926102 -111.932623 63 14969ft 198kts
08-Dec-19 06:55 48.926102 -111.932623 63 14969ft 198kts
08-Dec-19 06:56 48.926102 -111.932623 63 14969ft 198kts
08-Dec-19 06:57 48.926102 -111.932623 63 14969ft 198kts
08-Dec-19 06:58 48.926102 -111.932623 63 14969ft 198kts
08-Dec-19 06:59 48.926102 -111.932623 63 14969ft 198kts
08-Dec-19 07:00 48.926102 -111.932623 63 14969ft 198kts
08-Dec-19 07:01 48.926102 -111.932623 63 14969ft 198kts
08-Dec-19 07:02 48.926102 -111.932623 63 14969ft 198kts
08-Dec-19 07:03 48.926102 -111.932623 63 14969ft 198kts
08-Dec-19 07:04 48.926102 -111.932623 63 14969ft 198kts
08-Dec-19 07:05 48.926102 -111.932623 63 14969ft 198kts
08-Dec-19 07:06 48.926102 -111.932623 63 14969ft 198kts
08-Dec-19 07:07 48.926102 -111.932623 63 14969ft 198kts
08-Dec-19 07:08 48.926102 -111.932623 63 14969ft 198kts
08-Dec-19 07:09 48.926102 -111.932623 63 14969ft 198kts
08-Dec-19 07:10 48.926102 -111.932623 63 14969ft 198kts
08-Dec-19 07:10 48.926102 -111.932623 63 14969ft 198kts
08-Dec-19 07:12 48.926102 -111.932623 63 14969ft 198kts
08-Dec-19 07:12 48.926102 -111.932623 63 14969ft 198kts
08-Dec-19 07:14 48.926102 -111.932623 63 14969ft 198kts
08-Dec-19 07:15 48.926102 -111.932623 63 14969ft 198kts
08-Dec-19 07:15 48.926102 -111.932623 63 14969ft 198kts
08-Dec-19 07:17 48.926102 -111.932623 63 14969ft 198kts
08-Dec-19 07:17 48.926102 -111.932623 63 14969ft 198kts
08-Dec-19 07:18 48.926102 -111.932623 63 14969ft 198kts
08-Dec-19 07:19 48.926102 -111.932623 63 14969ft 198kts
08-Dec-19 07:20 48.926102 -111.932623 63 14969ft 198kts
08-Dec-19 07:21 48.926102 -111.932623 63 14969ft 198kts
08-Dec-19 07:22 48.926102 -111.932623 63 14969ft 198kts
08-Dec-19 07:23 48.926102 -111.932623 63 14969ft 198kts
08-Dec-19 07:24 48.926102 -111.932623 63 14969ft 198kts
08-Dec-19 07:25 48.926102 -111.932623 63 14969ft 198kts
08-Dec-19 07:26 48.926102 -111.932623 63 14969ft 198kts
08-Dec-19 07:27 48.926102 -111.932623 63 14969ft 198kts
08-Dec-19 07:28 48.926102 -111.932623 63 14969ft 198kts
08-Dec-19 07:29 48.926102 -111.932623 63 14969ft 198kts
08-Dec-19 07:30 48.926102 -111.932623 63 14969ft 198kts
08-Dec-19 07:31 48.926102 -111.932623 63 14969ft 198kts
08-Dec-19 07:32 48.926102 -111.932623 63 14969ft 198kts
08-Dec-19 07:33 48.926102 -111.932623 63 14969ft 198kts
08-Dec-19 07:34 48.926102 -111.932623 63 14969ft 198kts
08-Dec-19 07:35 48.926102 -111.932623 63 14969ft 198kts
08-Dec-19 07:36 48.926102 -111.932623 63 14969ft 198kts
08-Dec-19 07:37 48.926102 -111.932623 63 14969ft 198kts
08-Dec-19 07:38 48.926102 -111.932623 63 14969ft 198kts
08-Dec-19 07:39 48.926102 -111.932623 63 14969ft 198kts
08-Dec-19 07:40 48.926102 -111.932623 63 14969ft 198kts
08-Dec-19 07:41 48.926102 -111.932623 63 14969ft 198kts
08-Dec-19 07:42 48.926102 -111.932623 63 14969ft 198kts
08-Dec-19 07:43 48.926102 -111.932623 63 14969ft 198kts
08-Dec-19 07:44 48.926102 -111.932623 63 14969ft 198kts
08-Dec-19 07:45 48.926102 -111.932623 63 14969ft 198kts
08-Dec-19 07:46 48.926102 -111.932623 63 14969ft 198kts
08-Dec-19 07:47 48.926102 -111.932623 63 14969ft 198kts
08-Dec-19 07:48 48.926102 -111.932623 63 14969ft 198kts
08-Dec-19 07:49 48.926102 -111.932623 63 14969ft 198kts
08-Dec-19 07:50 48.926102 -111.932623 63 14969ft 198kts
08-Dec-19 07:51 48.926102 -111.932623 63 14969ft 198kts
08-Dec-19 07:52 48.926102 -111.932623 63 14969ft 198kts
08-Dec-19 07:53 48.926102 -111.932623 63 14969ft 198kts
08-Dec-19 07:54 48.926102 -111.932623 63 14969ft 198kts
08-Dec-19 07:55 48.926102 -111.932623 63 14969ft 198kts
08-Dec-19 07:56 48.926102 -111.932623 63 14969ft 198kts
08-Dec-19 07:57 48.926102 -111.932623 63 14969ft 198kts
08-Dec-19 07:58 48.926102 -111.932623 63 14969ft 198kts
08-Dec-19 07:59 48.926102 -111.932623 63 14969ft 198kts
08-Dec-19 08:00 48.926102 -111.932623 63 14969ft 198kts
08-Dec-19 08:01 48.926102 -111.932623 63 14969ft 198kts
08-Dec-19 08:02 48.926102 -111.932623 63 14969ft 198kts
08-Dec-19 08:03 48.926102 -111.932623 63 14969ft 198kts
08-Dec-19 08:04 48.926102 -111.932623 63 14969ft 198kts
08-Dec-19 08:05 48.928639 -111.923413 64 14974ft 198kts
08-Dec-19 08:06 48.950667 -111.846839 63 15032ft 197kts
08-Dec-19 08:07 48.972627 -111.769768 63 15097ft 196kts
08-Dec-19 08:08 48.992957 -111.693405 63 15181ft 191kts
08-Dec-19 08:09 49.012015 -111.617840 63 15261ft 187kts
08-Dec-19 08:10 49.029947 -111.544139 63 15331ft 182kts
08-Dec-19 08:11 49.047184 -111.472040 63 15394ft 177kts
08-Dec-19 08:12 49.064007 -111.401494 63 15452ft 173kts
08-Dec-19 08:13 49.080608 -111.332694 63 15502ft 169kts
08-Dec-19 08:14 49.097204 -111.265534 63 15540ft 166kts
08-Dec-19 08:15 49.113915 -111.200132 63 15598ft 163kts
08-Dec-19 08:16 49.130893 -111.135807 63 15648ft 162kts
08-Dec-19 08:17 49.147879 -111.071576 63 15682ft 162kts
08-Dec-19 08:18 49.164983 -111.007231 63 15711ft 162kts
08-Dec-19 08:19 49.182186 -110.942866 63 15737ft 163kts
08-Dec-19 08:20 49.199540 -110.878295 63 15762ft 163kts
08-Dec-19 08:21 49.216996 -110.813599 63 15791ft 163kts
08-Dec-19 08:22 49.234436 -110.748935 63 15818ft 163kts
08-Dec-19 08:23 49.251893 -110.684240 63 15844ft 163kts
08-Dec-19 08:24 49.269380 -110.619443 62 15868ft 163kts
08-Dec-19 08:25 49.286834 -110.554782 62 15892ft 163kts
08-Dec-19 08:26 49.304333 -110.489978 62 15914ft 163kts
08-Dec-19 08:27 49.321871 -110.425066 62 15936ft 163kts
08-Dec-19 08:28 49.339371 -110.360333 62 15955ft 163kts
08-Dec-19 08:29 49.356893 -110.295492 63 15967ft 164kts
08-Dec-19 08:30 49.374434 -110.230671 63 15977ft 164kts
08-Dec-19 08:31 49.391969 -110.165917 63 15987ft 164kts
08-Dec-19 08:32 49.409540 -110.101048 63 15995ft 164kts
08-Dec-19 08:33 49.427088 -110.036312 63 16000ft 164kts
08-Dec-19 08:34 49.444704 -109.971398 62 16002ft 164kts
08-Dec-19 08:35 49.462381 -109.906355 62 15999ft 164kts
08-Dec-19 08:36 49.480069 -109.841372 62 16000ft 163kts
08-Dec-19 08:37 49.497697 -109.776653 62 16000ft 163kts
08-Dec-19 08:38 49.515386 -109.711866 62 15999ft 163kts
08-Dec-19 08:39 49.533118 -109.646972 62 15997ft 163kts
08-Dec-19 08:40 49.550901 -109.582029 62 15995ft 163kts
08-Dec-19 08:41 49.568683 -109.517173 62 15959ft 165kts
08-Dec-19 08:42 49.587122 -109.450578 62 15841ft 169kts
08-Dec-19 08:43 49.605827 -109.383447 62 15757ft 169kts
08-Dec-19 08:44 49.624520 -109.316574 62 15680ft 169kts
08-Dec-19 08:45 49.643349 -109.249428 62 15608ft 170kts
08-Dec-19 08:46 49.662287 -109.182067 62 15540ft 170kts
08-Dec-19 08:47 49.681010 -109.114888 62 15477ft 170kts
08-Dec-19 08:48 49.699635 -109.047217 62 15421ft 171kts
08-Dec-19 08:49 49.718169 -108.979066 62 15349ft 173kts
08-Dec-19 08:50 49.737105 -108.909340 62 15232ft 176kts
08-Dec-19 08:51 49.756262 -108.839186 62 15146ft 176kts
08-Dec-19 08:52 49.775476 -108.769078 62 15069ft 176kts
08-Dec-19 08:53 49.794749 -108.699049 62 14997ft 176kts
08-Dec-19 08:54 49.814128 -108.628879 61 14931ft 176kts
08-Dec-19 08:55 49.833585 -108.558721 61 14869ft 176kts
08-Dec-19 08:56 49.853049 -108.488762 61 14813ft 176kts
08-Dec-19 08:57 49.872616 -108.418635 61 14760ft 176kts
08-Dec-19 08:58 49.891848 -108.349913 62 14713ft 176kts
08-Dec-19 08:59 49.911499 -108.279893 62 14661ft 176kts
08-Dec-19 09:00 49.931170 -108.209979 62 14614ft 176kts
08-Dec-19 09:01 49.951006 -108.139644 62 14571ft 176kts
08-Dec-19 09:02 49.970782 -108.069749 61 14532ft 176kts
08-Dec-19 09:03 49.990677 -107.999645 61 14495ft 176kts
08-Dec-19 09:04 50.010524 -107.929869 61 14462ft 176kts
08-Dec-19 09:05 50.030451 -107.859967 61 14432ft 176kts
08-Dec-19 09:06 50.050507 -107.789979 61 14409ft 175kts
08-Dec-19 09:07 50.070506 -107.720472 61 14385ft 175kts
08-Dec-19 09:08 50.090548 -107.650943 61 14363ft 175kts
08-Dec-19 09:09 50.110677 -107.581245 61 14355ft 175kts
08-Dec-19 09:10 50.130773 -107.511762 61 14358ft 175kts
08-Dec-19 09:11 50.150923 -107.442182 61 14362ft 175kts
08-Dec-19 09:12 50.171078 -107.372690 61 14366ft 175kts
08-Dec-19 09:13 50.191287 -107.303104 61 14366ft 175kts
08-Dec-19 09:14 50.211533 -107.233479 61 14366ft 175kts
08-Dec-19 09:16 50.231846 -107.163726 61 14367ft 175kts
08-Dec-19 09:17 50.252084 -107.094310 61 14369ft 175kts
08-Dec-19 09:18 50.272416 -107.024674 61 14370ft 175kts
08-Dec-19 09:19 50.292831 -106.954723 61 14356ft 177kts
08-Dec-19 09:20 50.313665 -106.883680 61 14341ft 180kts
08-Dec-19 09:21 50.334973 -106.811902 61 14328ft 182kts
08-Dec-19 09:22 50.356772 -106.739378 61 14329ft 183kts
08-Dec-19 09:23 50.378614 -106.666785 60 14338ft 184kts
08-Dec-19 09:24 50.400458 -106.594273 60 14348ft 184kts
08-Dec-19 09:25 50.422353 -106.521662 60 14358ft 184kts
08-Dec-19 09:26 50.444233 -106.449181 60 14370ft 184kts
08-Dec-19 09:27 50.466292 -106.376210 60 14382ft 184kts
08-Dec-19 09:28 50.488236 -106.303742 61 14385ft 184kts
08-Dec-19 09:29 50.510323 -106.230934 61 14388ft 184kts
08-Dec-19 09:30 50.532639 -106.157599 60 14244ft 188kts
08-Dec-19 09:31 50.555754 -106.082543 60 13972ft 190kts
08-Dec-19 09:32 50.579191 -106.007009 60 13728ft 190kts
08-Dec-19 09:33 50.602778 -105.931507 60 13499ft 190kts
08-Dec-19 09:34 50.626416 -105.856273 60 13283ft 190kts
08-Dec-19 09:35 50.650219 -105.780933 60 13080ft 190kts
08-Dec-19 09:35 50.670068 -105.718435 60 12920ft 189kts
08-Dec-19 09:37 50.697964 -105.631051 60 12707ft 189kts
08-Dec-19 09:38 50.721014 -105.555742 67 12534ft 190kts
08-Dec-19 09:38 50.735717 -105.489228 68 12398ft 190kts
08-Dec-19 09:39 50.746253 -105.406317 101 12003ft 201kts
08-Dec-19 09:41 50.731274 -105.305507 102 11465ft 193kts
08-Dec-19 09:41 50.718099 -105.238822 125 10985ft 189kts
08-Dec-19 09:42 50.689432 -105.171667 119 10347ft 179kts
08-Dec-19 09:43 50.666964 -105.101286 109 9723ft 176kts
08-Dec-19 09:44 50.647810 -105.029040 108 9148ft 174kts
08-Dec-19 09:45 50.633359 -104.955938 122 8477ft 178kts
08-Dec-19 09:46 50.599447 -104.902247 144 7811ft 165kts
08-Dec-19 09:47 50.567972 -104.849303 128 6654ft 168kts
08-Dec-19 09:48 50.530914 -104.808450 152 5742ft 147kts
08-Dec-19 09:49 50.504281 -104.768582 124 4801ft 125kts
08-Dec-19 09:50 50.481306 -104.729320 135 3421ft 120kts
08-Dec-19 09:51 50.458377 -104.697953 133 2553ft 101kts
08-Dec-19 09:52 50.438300 -104.669548 137 1887ft 79kts
08-Dec-19 09:53 50.435252 -104.658643 45 1883ft 22kts
08-Dec-19 09:54 50.437765 -104.652887 49 1877ft 0kts

Navigation Log

Ident Type
Flight plan parsing failed, navigation log unavailable